createdAt,value
2018-07-14T00:00:38.052Z,15.50
2018-07-14T00:03:05.243Z,15.53
2018-07-14T00:05:32.356Z,15.49
2018-07-14T00:07:59.517Z,15.68
2018-07-14T00:10:26.653Z,15.69
2018-07-14T00:12:53.740Z,15.54
2018-07-14T00:15:20.884Z,15.64
2018-07-14T00:17:47.993Z,15.79
2018-07-14T00:20:15.141Z,15.74
2018-07-14T00:22:42.344Z,15.72
2018-07-14T00:25:09.452Z,15.67
2018-07-14T00:27:36.553Z,15.31
2018-07-14T00:30:04.437Z,15.49
2018-07-14T00:32:31.600Z,15.47
2018-07-14T00:34:58.735Z,15.41
2018-07-14T00:37:25.827Z,15.11
2018-07-14T00:39:52.965Z,14.78
2018-07-14T00:42:20.147Z,14.97
2018-07-14T00:44:47.290Z,14.78
2018-07-14T00:47:14.419Z,14.89
2018-07-14T00:49:41.533Z,14.90
2018-07-14T00:52:08.668Z,14.59
2018-07-14T00:54:35.764Z,14.51
2018-07-14T00:57:02.868Z,14.49
2018-07-14T00:59:30.045Z,14.77
2018-07-14T01:01:57.176Z,15.00
2018-07-14T01:04:24.301Z,14.99
2018-07-14T01:06:51.448Z,15.18
2018-07-14T01:09:18.612Z,15.18
2018-07-14T01:11:45.728Z,15.18
2018-07-14T01:14:13.143Z,15.04
2018-07-14T01:16:40.640Z,14.98
2018-07-14T01:19:07.848Z,14.87
2018-07-14T01:21:35.024Z,14.85
2018-07-14T01:24:02.225Z,14.70
2018-07-14T01:26:29.348Z,14.69
2018-07-14T01:28:56.451Z,14.78
2018-07-14T01:31:23.548Z,14.90
2018-07-14T01:33:50.647Z,15.15
2018-07-14T01:36:17.777Z,15.00
2018-07-14T01:38:45.070Z,15.00
2018-07-14T01:41:12.193Z,14.99
2018-07-14T01:43:39.304Z,14.83
2018-07-14T01:46:06.420Z,14.41
2018-07-14T01:48:33.555Z,14.45
2018-07-14T01:51:00.695Z,14.51
2018-07-14T01:53:27.800Z,14.60
2018-07-14T01:55:54.948Z,14.61
2018-07-14T01:58:22.038Z,14.63
2018-07-14T02:00:49.262Z,14.60
2018-07-14T02:03:16.357Z,14.43
2018-07-14T02:05:43.438Z,14.02
2018-07-14T02:08:10.608Z,13.70
2018-07-14T02:10:37.712Z,13.46
2018-07-14T02:13:04.809Z,13.37
2018-07-14T02:15:31.931Z,13.37
2018-07-14T02:17:59.072Z,13.63
2018-07-14T02:20:26.218Z,13.96
2018-07-14T02:22:53.367Z,14.08
2018-07-14T02:25:20.760Z,13.86
2018-07-14T02:27:47.855Z,13.50
2018-07-14T02:30:14.953Z,13.39
2018-07-14T02:32:42.284Z,13.40
2018-07-14T02:35:09.435Z,13.73
2018-07-14T02:37:36.525Z,14.02
2018-07-14T02:40:04.843Z,14.06
2018-07-14T02:42:32.008Z,13.94
2018-07-14T02:44:59.192Z,13.38
2018-07-14T02:47:26.321Z,12.95
2018-07-14T02:49:53.508Z,13.78
2018-07-14T02:52:20.640Z,13.71
2018-07-14T02:54:47.991Z,13.73
2018-07-14T02:57:15.132Z,13.84
2018-07-14T02:59:42.497Z,13.70
2018-07-14T03:02:09.679Z,13.62
2018-07-14T03:04:36.886Z,13.77
2018-07-14T03:07:04.046Z,13.77
2018-07-14T03:09:31.281Z,13.48
2018-07-14T03:11:58.424Z,13.64
2018-07-14T03:14:25.574Z,13.71
2018-07-14T03:16:52.677Z,13.77
2018-07-14T03:19:19.883Z,13.64
2018-07-14T03:21:46.987Z,13.52
2018-07-14T03:24:14.128Z,13.14
2018-07-14T03:26:41.228Z,13.45
2018-07-14T03:29:08.372Z,13.25
2018-07-14T03:31:35.467Z,13.07
2018-07-14T03:34:02.685Z,13.11
2018-07-14T03:36:29.796Z,12.86
2018-07-14T03:38:56.931Z,12.63
2018-07-14T03:41:28.289Z,12.86
2018-07-14T03:43:55.499Z,12.62
2018-07-14T03:46:22.648Z,13.02
2018-07-14T03:48:49.765Z,13.26
2018-07-14T03:51:16.940Z,13.48
2018-07-14T03:53:44.075Z,13.51
2018-07-14T03:56:11.184Z,13.63
2018-07-14T03:58:38.297Z,13.54
2018-07-14T04:01:05.433Z,13.16
2018-07-14T04:03:32.568Z,13.23
2018-07-14T04:05:59.666Z,13.18
2018-07-14T04:08:26.732Z,13.33
2018-07-14T04:10:53.909Z,13.55
2018-07-14T04:13:21.022Z,13.64
2018-07-14T04:15:48.183Z,13.78
2018-07-14T04:18:15.343Z,13.49
2018-07-14T04:20:42.473Z,13.63
2018-07-14T04:23:09.619Z,13.63
2018-07-14T04:25:36.705Z,13.64
2018-07-14T04:28:03.836Z,13.47
2018-07-14T04:30:31.008Z,13.85
2018-07-14T04:32:58.205Z,13.93
2018-07-14T04:35:25.866Z,14.00
2018-07-14T04:37:53.052Z,14.01
2018-07-14T04:40:20.207Z,14.11
2018-07-14T04:42:47.340Z,14.19
2018-07-14T04:45:14.474Z,14.06
2018-07-14T04:47:41.641Z,14.24
2018-07-14T04:50:08.827Z,14.09
2018-07-14T04:52:36.221Z,14.17
2018-07-14T04:55:03.732Z,14.19
2018-07-14T04:57:30.864Z,14.25
2018-07-14T04:59:58.011Z,14.23
2018-07-14T05:02:25.143Z,14.07
2018-07-14T05:04:52.321Z,14.24
2018-07-14T05:07:19.484Z,14.51
2018-07-14T05:09:46.612Z,14.42
2018-07-14T05:12:13.767Z,14.74
2018-07-14T05:14:40.951Z,14.85
2018-07-14T05:17:08.094Z,15.05
2018-07-14T05:19:35.262Z,15.26
2018-07-14T05:22:02.421Z,15.41
2018-07-14T05:24:29.552Z,15.57
2018-07-14T05:26:56.687Z,15.65
2018-07-14T05:29:23.789Z,15.64
2018-07-14T05:31:50.940Z,15.75
2018-07-14T05:34:18.151Z,16.02
2018-07-14T05:36:45.338Z,16.17
2018-07-14T05:39:12.483Z,16.33
2018-07-14T05:41:39.745Z,16.46
2018-07-14T05:44:07.017Z,16.58
2018-07-14T05:46:34.084Z,16.65
2018-07-14T05:49:01.205Z,16.39
2018-07-14T05:51:28.327Z,16.54
2018-07-14T05:53:55.460Z,16.80
2018-07-14T05:56:22.621Z,16.95
2018-07-14T05:58:49.815Z,17.11
2018-07-14T06:01:17.004Z,17.34
2018-07-14T06:03:44.153Z,17.55
2018-07-14T06:06:11.287Z,17.68
2018-07-14T06:08:38.418Z,17.33
2018-07-14T06:11:05.557Z,17.75
2018-07-14T06:13:32.700Z,18.04
2018-07-14T06:15:59.825Z,18.06
2018-07-14T06:18:26.884Z,18.54
2018-07-14T06:20:54.016Z,18.79
2018-07-14T06:23:21.196Z,19.17
2018-07-14T06:25:48.324Z,19.15
2018-07-14T06:28:15.460Z,19.10
2018-07-14T06:30:42.617Z,19.18
2018-07-14T06:33:09.728Z,19.35
2018-07-14T06:35:37.063Z,19.38
2018-07-14T06:38:04.152Z,19.54
2018-07-14T06:40:31.288Z,19.74
2018-07-14T06:42:58.632Z,19.91
2018-07-14T06:45:25.756Z,20.24
2018-07-14T06:47:52.889Z,20.32
2018-07-14T06:50:20.069Z,20.10
2018-07-14T06:52:47.218Z,20.69
2018-07-14T06:55:14.350Z,20.81
2018-07-14T06:57:41.483Z,20.81
2018-07-14T07:00:08.692Z,21.19
2018-07-14T07:02:35.863Z,21.40
2018-07-14T07:05:03.564Z,21.60
2018-07-14T07:07:30.707Z,21.54
2018-07-14T07:10:05.043Z,21.29
2018-07-14T07:12:32.211Z,21.48
2018-07-14T07:14:59.369Z,22.02
2018-07-14T07:17:27.359Z,22.18
2018-07-14T07:19:54.717Z,22.25
2018-07-14T07:22:21.872Z,22.12
2018-07-14T07:24:49.040Z,22.18
2018-07-14T07:27:16.185Z,22.20
2018-07-14T07:29:43.324Z,21.93
2018-07-14T07:32:10.541Z,21.93
2018-07-14T07:34:37.750Z,22.30
2018-07-14T07:37:05.255Z,22.51
2018-07-14T07:39:32.638Z,21.82
2018-07-14T07:41:59.802Z,22.01
2018-07-14T07:44:26.976Z,22.53
2018-07-14T07:46:54.169Z,22.79
2018-07-14T07:49:21.300Z,22.91
2018-07-14T07:51:48.509Z,22.84
2018-07-14T07:54:15.688Z,22.79
2018-07-14T07:56:42.885Z,23.20
2018-07-14T07:59:10.111Z,23.41
2018-07-14T08:01:37.262Z,23.30
2018-07-14T08:04:04.379Z,23.63
2018-07-14T08:06:31.567Z,23.68
2018-07-14T08:08:58.719Z,23.93
2018-07-14T08:11:25.868Z,23.93
2018-07-14T08:13:53.009Z,24.26
2018-07-14T08:16:20.167Z,24.48
2018-07-14T08:18:47.333Z,24.54
2018-07-14T08:21:14.476Z,23.99
2018-07-14T08:23:41.614Z,24.27
2018-07-14T08:26:08.748Z,24.42
2018-07-14T08:28:35.899Z,24.55
2018-07-14T08:31:03.288Z,24.38
2018-07-14T08:33:30.433Z,25.05
2018-07-14T08:35:57.573Z,25.24
2018-07-14T08:38:24.724Z,24.90
2018-07-14T08:40:51.908Z,24.80
2018-07-14T08:43:19.036Z,24.57
2018-07-14T08:45:46.268Z,25.22
2018-07-14T08:48:13.508Z,25.15
2018-07-14T08:50:40.992Z,24.90
2018-07-14T08:53:08.174Z,25.24
2018-07-14T08:55:35.388Z,25.58
2018-07-14T08:58:02.633Z,25.50
2018-07-14T09:00:29.793Z,24.66
2018-07-14T09:02:57.049Z,24.91
2018-07-14T09:05:24.256Z,25.11
2018-07-14T09:07:51.554Z,25.68
2018-07-14T09:10:18.854Z,25.64
2018-07-14T09:12:46.071Z,25.66
2018-07-14T09:15:13.241Z,25.51
2018-07-14T09:17:40.427Z,25.37
2018-07-14T09:20:08.426Z,25.24
2018-07-14T09:22:35.600Z,25.96
2018-07-14T09:25:03.146Z,25.81
2018-07-14T09:27:30.285Z,26.13
2018-07-14T09:29:57.505Z,26.17
2018-07-14T09:32:24.681Z,26.14
2018-07-14T09:34:51.846Z,26.19
2018-07-14T09:37:19.021Z,25.77
2018-07-14T09:39:46.155Z,25.55
2018-07-14T09:42:13.348Z,25.69
2018-07-14T09:44:40.586Z,25.70
2018-07-14T09:47:07.800Z,26.31
2018-07-14T09:49:34.948Z,26.48
2018-07-14T09:52:02.142Z,26.61
2018-07-14T09:54:29.294Z,26.37
2018-07-14T09:56:56.491Z,25.95
2018-07-14T09:59:23.616Z,26.40
2018-07-14T10:01:50.972Z,26.51
2018-07-14T10:04:18.188Z,25.83
2018-07-14T10:06:45.475Z,26.20
2018-07-14T10:09:12.635Z,26.14
2018-07-14T10:11:39.816Z,26.11
2018-07-14T10:14:06.979Z,27.12
2018-07-14T10:16:34.209Z,26.59
2018-07-14T10:19:01.358Z,27.25
2018-07-14T10:21:28.512Z,26.93
2018-07-14T10:23:55.680Z,27.48
2018-07-14T10:26:22.833Z,27.13
2018-07-14T10:28:50.091Z,27.17
2018-07-14T10:31:17.360Z,26.92
2018-07-14T10:33:44.638Z,26.44
2018-07-14T10:36:11.681Z,26.61
2018-07-14T10:38:38.863Z,26.16
2018-07-14T10:41:06.027Z,26.22
2018-07-14T10:43:33.219Z,26.50
2018-07-14T10:46:00.366Z,26.79
2018-07-14T10:48:27.535Z,27.04
2018-07-14T10:50:54.702Z,26.67
2018-07-14T10:53:21.864Z,26.85
2018-07-14T10:55:49.031Z,27.35
2018-07-14T10:58:16.242Z,27.85
2018-07-14T11:00:43.391Z,27.16
2018-07-14T11:03:10.581Z,27.29
2018-07-14T11:05:37.779Z,27.35
2018-07-14T11:08:04.901Z,27.64
2018-07-14T11:10:32.081Z,27.76
2018-07-14T11:12:59.268Z,27.32
2018-07-14T11:15:26.373Z,27.77
2018-07-14T11:17:53.586Z,27.23
2018-07-14T11:20:20.691Z,27.51
2018-07-14T11:22:47.900Z,27.84
2018-07-14T11:25:15.009Z,28.12
2018-07-14T11:27:42.166Z,28.96
2018-07-14T11:30:09.346Z,29.28
2018-07-14T11:32:36.516Z,29.10
2018-07-14T11:35:04.668Z,28.65
2018-07-14T11:37:31.835Z,28.14
2018-07-14T11:39:58.939Z,28.24
2018-07-14T11:42:26.103Z,28.70
2018-07-14T11:44:53.228Z,29.31
2018-07-14T11:47:20.393Z,29.33
2018-07-14T11:49:47.572Z,29.36
2018-07-14T11:52:14.741Z,28.11
2018-07-14T11:54:41.864Z,27.62
2018-07-14T11:57:08.997Z,28.22
2018-07-14T11:59:36.125Z,28.75
2018-07-14T12:02:03.444Z,28.56
2018-07-14T12:04:30.527Z,28.84
2018-07-14T12:06:57.696Z,29.20
2018-07-14T12:09:24.864Z,29.27
2018-07-14T12:11:52.008Z,28.02
2018-07-14T12:14:19.080Z,28.12
2018-07-14T12:16:46.232Z,27.40
2018-07-14T12:19:13.396Z,27.68
2018-07-14T12:21:40.558Z,27.82
2018-07-14T12:24:07.707Z,28.54
2018-07-14T12:26:34.890Z,28.70
2018-07-14T12:29:02.060Z,28.47
2018-07-14T12:31:29.192Z,28.98
2018-07-14T12:33:56.315Z,29.16
2018-07-14T12:36:23.512Z,29.36
2018-07-14T12:38:50.669Z,30.18
2018-07-14T12:41:17.809Z,29.61
2018-07-14T12:43:44.981Z,27.98
2018-07-14T12:46:12.128Z,27.99
2018-07-14T12:48:39.343Z,29.23
2018-07-14T12:51:06.558Z,29.12
2018-07-14T12:53:33.874Z,29.44
2018-07-14T12:56:00.985Z,29.29
2018-07-14T12:58:28.135Z,28.62
2018-07-14T13:00:55.352Z,28.56
2018-07-14T13:03:22.549Z,27.88
2018-07-14T13:05:49.716Z,28.19
2018-07-14T13:08:16.896Z,28.87
2018-07-14T13:10:44.060Z,29.57
2018-07-14T13:13:11.350Z,30.01
2018-07-14T13:15:38.662Z,29.53
2018-07-14T13:18:05.845Z,30.29
2018-07-14T13:20:32.972Z,29.38
2018-07-14T13:23:00.116Z,28.84
2018-07-14T13:25:27.268Z,29.10
2018-07-14T13:27:54.511Z,29.41
2018-07-14T13:30:21.743Z,29.44
2018-07-14T13:32:48.868Z,28.80
2018-07-14T13:35:16.063Z,28.89
2018-07-14T13:37:43.213Z,29.12
2018-07-14T13:40:10.327Z,29.79
2018-07-14T13:42:37.647Z,30.50
2018-07-14T13:45:05.977Z,30.57
2018-07-14T13:47:33.186Z,30.38
2018-07-14T13:50:00.396Z,31.09
2018-07-14T13:52:27.564Z,31.32
2018-07-14T13:54:54.721Z,31.60
2018-07-14T13:57:21.876Z,30.40
2018-07-14T13:59:49.042Z,30.29
2018-07-14T14:02:16.267Z,30.58
2018-07-14T14:04:43.460Z,30.82
2018-07-14T14:07:10.631Z,31.05
2018-07-14T14:09:37.915Z,31.47
2018-07-14T14:12:05.684Z,31.53
2018-07-14T14:14:33.532Z,30.86
2018-07-14T14:17:00.692Z,30.48
2018-07-14T14:19:27.863Z,30.07
2018-07-14T14:21:55.152Z,30.89
2018-07-14T14:24:22.305Z,30.97
2018-07-14T14:26:49.467Z,30.57
2018-07-14T14:29:16.694Z,29.80
2018-07-14T14:31:43.762Z,29.93
2018-07-14T14:34:11.072Z,30.79
2018-07-14T14:36:38.291Z,29.62
2018-07-14T14:39:06.293Z,30.45
2018-07-14T14:41:33.423Z,30.25
2018-07-14T14:44:00.597Z,29.72
2018-07-14T14:46:27.751Z,30.58
2018-07-14T14:48:55.519Z,31.04
2018-07-14T14:51:23.724Z,31.61
2018-07-14T14:53:50.976Z,31.27
2018-07-14T14:56:18.153Z,31.09
2018-07-14T14:58:45.264Z,30.32
2018-07-14T15:01:12.442Z,29.74
2018-07-14T15:03:39.648Z,30.33
2018-07-14T15:06:06.835Z,30.11
2018-07-14T15:08:34.053Z,29.91
2018-07-14T15:11:01.212Z,31.35
2018-07-14T15:13:28.413Z,31.07
2018-07-14T15:15:55.672Z,31.10
2018-07-14T15:18:22.847Z,30.92
2018-07-14T15:20:50.021Z,31.04
2018-07-14T15:23:17.283Z,30.79
2018-07-14T15:25:44.435Z,30.97
2018-07-14T15:28:11.659Z,30.58
2018-07-14T15:30:38.857Z,29.69
2018-07-14T15:33:06.184Z,29.94
2018-07-14T15:35:33.213Z,28.88
2018-07-14T15:38:00.395Z,28.59
2018-07-14T15:40:27.625Z,29.04
2018-07-14T15:42:54.797Z,29.87
2018-07-14T15:45:21.964Z,30.04
2018-07-14T15:47:49.101Z,30.67
2018-07-14T15:50:16.249Z,30.51
2018-07-14T15:52:43.416Z,30.99
2018-07-14T15:55:10.587Z,30.19
2018-07-14T15:57:37.812Z,30.84
2018-07-14T16:00:06.441Z,30.75
2018-07-14T16:02:33.616Z,30.52
2018-07-14T16:05:00.735Z,30.20
2018-07-14T16:07:27.921Z,30.22
2018-07-14T16:09:55.089Z,29.98
2018-07-14T16:12:22.796Z,29.39
2018-07-14T16:14:49.907Z,28.95
2018-07-14T16:17:18.043Z,29.47
2018-07-14T16:19:45.200Z,29.52
2018-07-14T16:22:12.365Z,29.08
2018-07-14T16:24:39.930Z,29.25
2018-07-14T16:27:07.132Z,29.07
2018-07-14T16:29:34.299Z,28.49
2018-07-14T16:32:01.489Z,28.62
2018-07-14T16:34:28.676Z,28.86
2018-07-14T16:36:55.911Z,28.97
2018-07-14T16:39:23.060Z,28.81
2018-07-14T16:41:50.232Z,28.70
2018-07-14T16:44:17.399Z,28.59
2018-07-14T16:46:44.514Z,28.44
2018-07-14T16:49:11.673Z,28.61
2018-07-14T16:51:38.868Z,28.42
2018-07-14T16:54:06.069Z,29.01
2018-07-14T16:56:33.236Z,28.95
2018-07-14T16:59:00.404Z,28.75
2018-07-14T17:01:27.576Z,28.37
2018-07-14T17:03:54.713Z,28.40
2018-07-14T17:06:21.856Z,27.94
2018-07-14T17:08:49.001Z,28.31
2018-07-14T17:11:16.155Z,28.41
2018-07-14T17:13:43.329Z,27.92
2018-07-14T17:16:10.463Z,28.29
2018-07-14T17:18:37.608Z,28.42
2018-07-14T17:21:04.756Z,28.51
2018-07-14T17:23:31.932Z,28.17
2018-07-14T17:25:59.139Z,28.03
2018-07-14T17:28:26.344Z,27.80
2018-07-14T17:30:53.492Z,27.80
2018-07-14T17:33:20.637Z,27.87
2018-07-14T17:35:47.907Z,27.68
2018-07-14T17:38:15.053Z,27.79
2018-07-14T17:40:42.174Z,27.90
2018-07-14T17:43:09.344Z,27.83
2018-07-14T17:45:36.617Z,27.73
2018-07-14T17:48:03.899Z,27.79
2018-07-14T17:50:31.060Z,27.80
2018-07-14T17:52:58.272Z,27.42
2018-07-14T17:55:25.494Z,27.14
2018-07-14T17:57:52.660Z,27.19
2018-07-14T18:00:19.787Z,26.99
2018-07-14T18:02:46.916Z,26.90
2018-07-14T18:05:14.126Z,26.74
2018-07-14T18:07:41.369Z,26.73
2018-07-14T18:10:08.558Z,26.70
2018-07-14T18:12:35.717Z,26.72
2018-07-14T18:15:03.284Z,26.84
2018-07-14T18:17:30.448Z,26.62
2018-07-14T18:19:57.577Z,26.56
2018-07-14T18:22:24.741Z,26.56
2018-07-14T18:24:51.916Z,26.49
2018-07-14T18:27:19.093Z,26.44
2018-07-14T18:29:46.247Z,26.38
2018-07-14T18:32:13.472Z,25.95
2018-07-14T18:34:40.599Z,26.35
2018-07-14T18:37:07.774Z,26.20
2018-07-14T18:39:34.913Z,26.09
2018-07-14T18:42:02.104Z,26.03
2018-07-14T18:44:29.254Z,26.00
2018-07-14T18:46:56.413Z,25.93
2018-07-14T18:49:23.547Z,25.84
2018-07-14T18:51:50.640Z,25.72
2018-07-14T18:54:17.859Z,25.55
2018-07-14T18:56:45.175Z,25.57
2018-07-14T18:59:12.344Z,25.47
2018-07-14T19:01:39.633Z,25.32
2018-07-14T19:04:06.920Z,25.14
2018-07-14T19:06:34.057Z,25.18
2018-07-14T19:09:01.294Z,25.19
2018-07-14T19:11:28.452Z,25.09
2018-07-14T19:13:55.624Z,25.05
2018-07-14T19:16:22.780Z,24.88
2018-07-14T19:18:49.935Z,24.63
2018-07-14T19:21:17.076Z,24.65
2018-07-14T19:23:44.272Z,24.25
2018-07-14T19:26:11.516Z,24.04
2018-07-14T19:28:38.638Z,23.86
2018-07-14T19:31:05.796Z,23.66
2018-07-14T19:33:32.954Z,23.74
2018-07-14T19:36:00.096Z,23.68
2018-07-14T19:38:27.322Z,23.55
2018-07-14T19:40:54.484Z,23.68
2018-07-14T19:43:21.605Z,23.39
2018-07-14T19:45:48.762Z,23.46
2018-07-14T19:48:15.908Z,23.45
2018-07-14T19:50:43.028Z,23.43
2018-07-14T19:53:10.180Z,23.05
2018-07-14T19:55:37.326Z,22.69
2018-07-14T19:58:04.956Z,22.65
2018-07-14T20:00:32.100Z,22.32
2018-07-14T20:02:59.234Z,22.31
2018-07-14T20:05:26.344Z,22.56
2018-07-14T20:07:53.546Z,22.57
2018-07-14T20:10:20.686Z,22.56
2018-07-14T20:12:47.848Z,22.66
2018-07-14T20:15:21.756Z,22.70
2018-07-14T20:17:48.952Z,22.32
2018-07-14T20:20:16.133Z,22.29
2018-07-14T20:22:43.428Z,22.11
2018-07-14T20:25:10.561Z,22.17
2018-07-14T20:27:38.042Z,21.81
2018-07-14T20:30:05.546Z,21.81
2018-07-14T20:32:32.702Z,22.05
2018-07-14T20:35:00.004Z,22.17
2018-07-14T20:37:27.108Z,22.05
2018-07-14T20:39:54.236Z,21.92
2018-07-14T20:42:21.392Z,21.37
2018-07-14T20:44:48.503Z,20.93
2018-07-14T20:47:15.673Z,21.05
2018-07-14T20:49:42.792Z,21.08
2018-07-14T20:52:09.970Z,21.22
2018-07-14T20:54:37.127Z,21.31
2018-07-14T20:57:04.288Z,21.17
2018-07-14T20:59:31.421Z,21.01
2018-07-14T21:01:58.517Z,20.96
2018-07-14T21:04:25.739Z,20.92
2018-07-14T21:06:52.941Z,20.94
2018-07-14T21:09:20.082Z,20.83
2018-07-14T21:11:47.209Z,21.06
2018-07-14T21:14:14.316Z,21.20
2018-07-14T21:16:41.474Z,20.98
2018-07-14T21:19:08.732Z,20.75
2018-07-14T21:21:35.950Z,20.72
2018-07-14T21:24:03.132Z,20.89
2018-07-14T21:26:30.297Z,20.73
2018-07-14T21:28:57.410Z,20.49
2018-07-14T21:31:24.567Z,20.41
2018-07-14T21:33:51.739Z,20.04
2018-07-14T21:36:18.953Z,19.97
2018-07-14T21:38:46.132Z,20.33
2018-07-14T21:41:13.312Z,20.09
2018-07-14T21:43:43.012Z,20.29
2018-07-14T21:46:10.140Z,19.98
2018-07-14T21:48:37.248Z,19.82
2018-07-14T21:51:04.496Z,19.92
2018-07-14T21:53:31.696Z,20.09
2018-07-14T21:55:58.787Z,19.78
2018-07-14T21:58:25.909Z,19.77
2018-07-14T22:01:04.677Z,19.74
2018-07-14T22:03:32.839Z,19.31
2018-07-14T22:05:59.935Z,19.25
2018-07-14T22:08:27.068Z,19.21
2018-07-14T22:10:54.200Z,19.25
2018-07-14T22:13:21.341Z,19.51
2018-07-14T22:15:48.542Z,19.51
2018-07-14T22:18:15.703Z,19.65
2018-07-14T22:20:42.843Z,19.76
2018-07-14T22:23:10.130Z,19.96
2018-07-14T22:25:37.244Z,19.62
2018-07-14T22:28:11.326Z,18.74
2018-07-14T22:30:38.668Z,18.38
2018-07-14T22:33:05.873Z,18.56
2018-07-14T22:35:32.990Z,18.67
2018-07-14T22:38:00.208Z,18.46
2018-07-14T22:40:27.372Z,18.40
2018-07-14T22:42:54.517Z,18.50
2018-07-14T22:45:21.739Z,18.94
2018-07-14T22:47:48.847Z,18.84
2018-07-14T22:50:16.011Z,18.93
2018-07-14T22:52:43.180Z,18.88
2018-07-14T22:55:10.349Z,19.05
2018-07-14T22:57:37.544Z,18.95
2018-07-14T23:00:05.949Z,18.79
2018-07-14T23:02:33.074Z,18.73
2018-07-14T23:05:00.208Z,18.54
2018-07-14T23:07:27.340Z,18.34
2018-07-14T23:09:54.522Z,18.41
2018-07-14T23:12:21.796Z,18.40
2018-07-14T23:14:48.902Z,18.35
2018-07-14T23:17:16.048Z,18.49
2018-07-14T23:19:43.143Z,18.24
2018-07-14T23:22:10.311Z,18.19
2018-07-14T23:24:37.503Z,18.40
2018-07-14T23:27:04.585Z,18.42
2018-07-14T23:29:31.772Z,18.37
2018-07-14T23:31:58.926Z,18.28
2018-07-14T23:34:26.052Z,18.11
2018-07-14T23:36:53.154Z,18.29
2018-07-14T23:39:20.308Z,18.27
2018-07-14T23:41:47.449Z,18.05
2018-07-14T23:44:14.607Z,17.85
2018-07-14T23:46:41.764Z,17.42
2018-07-14T23:49:08.880Z,17.12
2018-07-14T23:51:36.087Z,17.40
2018-07-14T23:54:03.350Z,17.70
2018-07-14T23:56:30.484Z,17.59
2018-07-14T23:58:57.670Z,17.18
